Airfield :
LOGIN :

Register | Disclaimer

   EN    FR    IT 

 










Legend :    VFR   Marginal VFR   IFR   Intensive IFR   Very Intensive IFR
Visi :
Ceiling :
>= 8 km
>= 3000ft
5 to 8 km
1000 to 3000 ft
1500m to 5 km
500 to 1000 ft
800 to 1500m
200 to 500 ft
< 800m
< 200 ft
Symbols :   Thunderstorms  Fog  Heavy snow  Heavy precipitations  Wind > 20 kt
SIGMETs :     Misc.  Thunderstorms  Icing  Turbulence  Mountain Waves  Volcanic Ashes






- Airport Elevation : 287 ft


LFRL - Lanveoc Poulmic

CURRENT METAR :
  • 302100Z AUTO 30005KT 9999 FEW010 SCT052 12/11 Q1005 TEMPO BKN015TCU BECMG 24010G20KT

EXPIRED METARs :
  • 302030Z AUTO 29008KT 9999 -RA SCT011 BKN021 BKN047 13/12 Q1005 TEMPO BKN015TCU
  • 302000Z AUTO 26007KT 9999 BKN012 BKN019 13/13 Q1005 TEMPO BKN015TCU
  • 301930Z AUTO 26006KT CAVOK 13/13 Q1005 TEMPO BKN015TCU
  • 301900Z AUTO 26006KT 9999 FEW011 SCT036 BKN058 14/13 Q1005 TEMPO BKN015TCU
  • 301830Z AUTO 24005KT 9999 FEW014 SCT030 BKN045 14/13 Q1005 TEMPO BKN015TCU

TAF TAF LFRL
Valid from the 30 at 12:00 until the 01 at 12:00 UTC


301100Z 3012/0112 18018G30KT 9999 FEW015 BKN025
BECMG 3012/3013 3000 RA OVC003
BECMG 3019/3021 24010G20KT 9999 NSW BKN020
TEMPO 3018/0112 5000 -SHRA BKN015TCU



MET'MAP, your aeronautical weather chart ! - Copyright ORBIFLY December 2007 - Disclaimer

ORBIFLY MET'MAP TEAM :

Programming & Development : Alexandra Zaïnal
Concept & original design : Baudouin d'Aumeries
Assistance for programming : Marc-Olivier Méhu
Technical & hardware support : Manuel Goepfert

Contact : metmap@orbifly.com




SOURCES & CREDITS :

   NOAA